createdAt,value
2018-03-06T05:00:39.326Z,87.55
2018-03-06T05:01:04.828Z,87.36
2018-03-06T05:01:30.374Z,87.36
2018-03-06T05:01:55.805Z,87.46
2018-03-06T05:02:21.373Z,87.46
2018-03-06T05:02:46.921Z,87.55
2018-03-06T05:03:12.576Z,87.74
2018-03-06T05:03:38.216Z,87.74
2018-03-06T05:04:03.761Z,87.65
2018-03-06T05:04:29.298Z,87.55
2018-03-06T05:04:54.742Z,87.27
2018-03-06T05:05:20.242Z,87.84
2018-03-06T05:05:45.742Z,87.27
2018-03-06T05:06:11.265Z,87.27
2018-03-06T05:06:36.742Z,87.55
2018-03-06T05:07:02.300Z,87.46
2018-03-06T05:07:27.772Z,87.27
2018-03-06T05:07:53.268Z,87.27
2018-03-06T05:08:18.758Z,87.46
2018-03-06T05:08:44.258Z,87.74
2018-03-06T05:09:09.740Z,87.65
2018-03-06T05:09:35.180Z,87.46
2018-03-06T05:10:00.641Z,87.55
2018-03-06T05:10:26.152Z,87.36
2018-03-06T05:10:51.627Z,87.46
2018-03-06T05:11:17.104Z,87.27
2018-03-06T05:11:42.601Z,87.93
2018-03-06T05:12:08.057Z,87.65
2018-03-06T05:12:33.521Z,87.84
2018-03-06T05:12:59.013Z,87.74
2018-03-06T05:13:24.497Z,87.36
2018-03-06T05:13:49.998Z,87.93
2018-03-06T05:14:15.485Z,87.36
2018-03-06T05:14:40.974Z,87.27
2018-03-06T05:15:06.448Z,87.46
2018-03-06T05:15:31.914Z,87.84
2018-03-06T05:15:57.401Z,87.46
2018-03-06T05:16:22.889Z,87.46
2018-03-06T05:16:48.436Z,87.55
2018-03-06T05:17:13.967Z,87.84
2018-03-06T05:17:39.452Z,87.08
2018-03-06T05:18:04.967Z,86.98
2018-03-06T05:18:30.465Z,87.65
2018-03-06T05:18:56.048Z,87.55
2018-03-06T05:19:21.495Z,87.55
2018-03-06T05:19:46.980Z,87.74
2018-03-06T05:20:12.499Z,87.55
2018-03-06T05:20:37.992Z,87.55
2018-03-06T05:21:03.448Z,87.65
2018-03-06T05:21:28.926Z,87.55
2018-03-06T05:21:54.460Z,87.65
2018-03-06T05:22:19.931Z,87.65
2018-03-06T05:22:45.434Z,87.93
2018-03-06T05:23:10.984Z,87.46
2018-03-06T05:23:36.520Z,87.55
2018-03-06T05:24:02.035Z,87.36
2018-03-06T05:24:27.537Z,87.17
2018-03-06T05:24:53.079Z,87.27
2018-03-06T05:25:18.549Z,87.46
2018-03-06T05:25:44.066Z,88.02
2018-03-06T05:26:09.580Z,87.74
2018-03-06T05:26:35.081Z,87.65
2018-03-06T05:27:00.531Z,87.65
2018-03-06T05:27:26.046Z,87.46
2018-03-06T05:27:51.568Z,87.65
2018-03-06T05:28:17.075Z,87.55
2018-03-06T05:28:42.563Z,87.55
2018-03-06T05:29:08.113Z,87.65
2018-03-06T05:29:33.557Z,87.65
2018-03-06T05:29:59.053Z,87.65
2018-03-06T05:30:24.566Z,87.46
2018-03-06T05:30:50.057Z,87.65
2018-03-06T05:31:15.565Z,87.65
2018-03-06T05:31:41.046Z,87.55
2018-03-06T05:32:06.522Z,87.55
2018-03-06T05:32:32.000Z,87.65
2018-03-06T05:32:57.521Z,87.74
2018-03-06T05:33:23.014Z,87.74
2018-03-06T05:33:48.482Z,87.46
2018-03-06T05:34:13.978Z,87.55
2018-03-06T05:34:39.475Z,87.65
2018-03-06T05:35:05.027Z,87.55
2018-03-06T05:35:30.498Z,87.55
2018-03-06T05:35:56.092Z,88.02
2018-03-06T05:36:21.628Z,88.02
2018-03-06T05:36:47.173Z,87.36
2018-03-06T05:37:12.826Z,87.84
2018-03-06T05:37:38.368Z,87.55
2018-03-06T05:38:03.864Z,88.02
2018-03-06T05:38:29.379Z,88.02
2018-03-06T05:38:54.984Z,88.21
2018-03-06T05:39:20.461Z,87.84
2018-03-06T05:39:45.953Z,87.84
2018-03-06T05:40:11.412Z,88.21
2018-03-06T05:40:36.865Z,88.21
2018-03-06T05:41:02.404Z,87.93
2018-03-06T05:41:27.966Z,87.65
2018-03-06T05:41:53.487Z,87.84
2018-03-06T05:42:19.029Z,87.84
2018-03-06T05:42:44.534Z,87.74
2018-03-06T05:43:10.068Z,88.02
2018-03-06T05:43:35.542Z,87.84
2018-03-06T05:44:01.199Z,87.84
2018-03-06T05:44:26.747Z,88.12
2018-03-06T05:44:52.215Z,88.02
2018-03-06T05:45:17.728Z,87.74
2018-03-06T05:45:43.229Z,87.93
2018-03-06T05:46:08.679Z,87.84
2018-03-06T05:46:34.236Z,87.84
2018-03-06T05:46:59.689Z,87.93
2018-03-06T05:47:25.169Z,87.93
2018-03-06T05:47:50.606Z,87.93
2018-03-06T05:48:16.138Z,87.84
2018-03-06T05:48:41.887Z,87.93
2018-03-06T05:49:07.224Z,88.12
2018-03-06T05:49:32.732Z,88.49
2018-03-06T05:49:58.261Z,88.49
2018-03-06T05:50:23.963Z,88.49
2018-03-06T05:50:49.496Z,88.12
2018-03-06T05:51:15.033Z,87.74
2018-03-06T05:51:40.510Z,88.12
2018-03-06T05:52:06.131Z,87.84
2018-03-06T05:52:31.728Z,88.02
2018-03-06T05:52:57.476Z,88.02
2018-03-06T05:53:22.872Z,87.84
2018-03-06T05:53:48.471Z,87.74
2018-03-06T05:54:14.205Z,87.74
2018-03-06T05:54:39.723Z,87.74
2018-03-06T05:55:05.387Z,87.84
2018-03-06T05:55:30.816Z,87.74
2018-03-06T05:55:56.271Z,88.59
2018-03-06T05:56:21.730Z,88.12
2018-03-06T05:56:47.264Z,88.31
2018-03-06T05:57:12.771Z,88.49
2018-03-06T05:57:38.200Z,88.21
2018-03-06T05:58:03.613Z,88.31
2018-03-06T05:58:29.098Z,88.49
2018-03-06T05:58:54.635Z,88.49
2018-03-06T05:59:20.052Z,88.59
2018-03-06T05:59:45.524Z,88.21
2018-03-06T06:00:10.989Z,88.31
2018-03-06T06:00:36.495Z,88.31
2018-03-06T06:01:01.923Z,88.12
2018-03-06T06:01:27.374Z,88.4
2018-03-06T06:01:52.903Z,88.12
2018-03-06T06:02:18.301Z,88.4
2018-03-06T06:02:43.749Z,88.4
2018-03-06T06:03:09.249Z,88.4
2018-03-06T06:03:34.713Z,88.02
2018-03-06T06:04:00.205Z,88.49
2018-03-06T06:04:25.680Z,88.49
2018-03-06T06:04:51.101Z,88.78
2018-03-06T06:05:16.661Z,88.21
2018-03-06T06:05:42.118Z,89.06
2018-03-06T06:06:07.568Z,88.97
2018-03-06T06:06:33.052Z,88.68
2018-03-06T06:06:58.505Z,88.97
2018-03-06T06:07:23.989Z,88.87
2018-03-06T06:07:49.451Z,88.97
2018-03-06T06:08:14.917Z,88.59
2018-03-06T06:08:40.358Z,88.87
2018-03-06T06:09:05.838Z,88.78
2018-03-06T06:09:31.338Z,88.78
2018-03-06T06:09:56.827Z,88.68
2018-03-06T06:10:22.373Z,88.87
2018-03-06T06:10:47.851Z,88.87
2018-03-06T06:11:13.282Z,88.87
2018-03-06T06:11:38.826Z,88.68
2018-03-06T06:12:04.328Z,88.87
2018-03-06T06:12:29.814Z,88.87
2018-03-06T06:12:55.282Z,88.87
2018-03-06T06:13:20.711Z,88.78
2018-03-06T06:13:46.246Z,88.78
2018-03-06T06:14:11.717Z,88.97
2018-03-06T06:14:37.248Z,88.97
2018-03-06T06:15:02.721Z,88.59
2018-03-06T06:15:28.246Z,88.97
2018-03-06T06:15:53.702Z,88.68
2018-03-06T06:16:19.196Z,89.06
2018-03-06T06:16:44.652Z,89.06
2018-03-06T06:17:10.128Z,89.16
2018-03-06T06:17:35.632Z,88.59
2018-03-06T06:18:01.131Z,88.78
2018-03-06T06:18:26.754Z,88.49
2018-03-06T06:18:52.286Z,88.59
2018-03-06T06:19:17.877Z,88.97
2018-03-06T06:19:43.338Z,88.78
2018-03-06T06:20:08.832Z,88.97
2018-03-06T06:20:34.298Z,88.97
2018-03-06T06:20:59.827Z,89.06
2018-03-06T06:21:25.268Z,89.06
2018-03-06T06:21:50.807Z,89.06
2018-03-06T06:22:16.263Z,88.97
2018-03-06T06:22:41.743Z,88.78
2018-03-06T06:23:07.226Z,88.68
2018-03-06T06:23:32.712Z,88.97
2018-03-06T06:23:58.195Z,88.87
2018-03-06T06:24:23.694Z,88.78
2018-03-06T06:24:49.118Z,89.25
2018-03-06T06:25:14.628Z,89.06
2018-03-06T06:25:40.139Z,88.21
2018-03-06T06:26:05.626Z,88.49
2018-03-06T06:26:31.099Z,88.4
2018-03-06T06:26:56.649Z,88.68
2018-03-06T06:27:22.061Z,88.4
2018-03-06T06:27:47.538Z,88.31
2018-03-06T06:28:13.057Z,88.4
2018-03-06T06:28:38.655Z,88.49
2018-03-06T06:29:04.147Z,88.59
2018-03-06T06:29:29.614Z,88.59
2018-03-06T06:29:55.088Z,88.49
2018-03-06T06:31:08.897Z,88.12
2018-03-06T06:31:34.378Z,88.31
2018-03-06T06:31:59.850Z,88.49
2018-03-06T06:32:25.422Z,88.49
2018-03-06T06:32:50.842Z,88.59
2018-03-06T06:33:16.365Z,88.49
2018-03-06T06:33:41.981Z,88.49
2018-03-06T06:34:07.454Z,88.59
2018-03-06T06:34:32.945Z,88.59
2018-03-06T06:34:58.416Z,88.49
2018-03-06T06:35:23.943Z,88.21
2018-03-06T06:35:49.421Z,88.4
2018-03-06T06:36:14.874Z,88.31
2018-03-06T06:36:40.399Z,88.31
2018-03-06T06:37:05.931Z,88.12
2018-03-06T06:37:31.412Z,88.12
2018-03-06T06:37:56.881Z,88.12
2018-03-06T06:38:22.397Z,88.49
2018-03-06T06:38:47.920Z,88.59
2018-03-06T06:39:13.532Z,88.31
2018-03-06T06:39:39.008Z,88.49
2018-03-06T06:40:04.498Z,88.31
2018-03-06T06:40:30.292Z,88.59
2018-03-06T06:40:55.810Z,88.21
2018-03-06T06:41:21.302Z,88.31
2018-03-06T06:41:46.782Z,88.4
2018-03-06T06:42:12.308Z,88.4
2018-03-06T06:42:37.830Z,88.4
2018-03-06T06:43:03.304Z,88.4
2018-03-06T06:43:28.833Z,88.31
2018-03-06T06:43:54.313Z,88.31
2018-03-06T06:44:19.831Z,88.31
2018-03-06T06:44:45.232Z,88.21
2018-03-06T06:45:10.689Z,88.97
2018-03-06T06:45:36.205Z,88.49
2018-03-06T06:46:01.668Z,88.21
2018-03-06T06:46:27.135Z,88.97
2018-03-06T06:46:52.625Z,88.31
2018-03-06T06:47:18.172Z,89.06
2018-03-06T06:47:43.600Z,89.06
2018-03-06T06:48:09.072Z,88.97
2018-03-06T06:48:34.562Z,89.01
2018-03-06T06:49:00.036Z,88.87
2018-03-06T06:49:25.543Z,88.92
2018-03-06T06:49:51.017Z,88.92
2018-03-06T06:50:16.543Z,89.11
2018-03-06T06:50:42.057Z,89.11
2018-03-06T06:51:07.555Z,88.73
2018-03-06T06:51:33.036Z,88.82
2018-03-06T06:51:58.630Z,89.01
2018-03-06T06:52:24.125Z,88.92
2018-03-06T06:52:49.654Z,89.01
2018-03-06T06:53:15.152Z,89.11
2018-03-06T06:53:40.680Z,89.11
2018-03-06T06:54:06.143Z,89.11
2018-03-06T06:54:31.660Z,89.11
2018-03-06T06:54:57.176Z,89.11
2018-03-06T06:55:22.601Z,89.01
2018-03-06T06:55:48.142Z,88.64
2018-03-06T06:56:13.616Z,88.35
2018-03-06T06:56:39.070Z,88.26
2018-03-06T06:57:04.548Z,88.35
2018-03-06T06:57:30.052Z,88.26
2018-03-06T06:57:55.541Z,88.54
2018-03-06T06:58:21.077Z,88.73
2018-03-06T06:58:46.548Z,88.26
2018-03-06T06:59:12.169Z,88.45
2018-03-06T06:59:37.665Z,88.35
2018-03-06T07:00:03.149Z,88.35
2018-03-06T07:00:28.635Z,88.64
2018-03-06T07:00:54.131Z,88.64
2018-03-06T07:01:19.688Z,88.54
2018-03-06T07:01:45.157Z,88.35
2018-03-06T07:02:10.603Z,88.64
2018-03-06T07:02:36.080Z,87.98
2018-03-06T07:03:01.591Z,87.98
2018-03-06T07:03:27.050Z,87.78
2018-03-06T07:03:52.466Z,87.88
2018-03-06T07:04:17.993Z,87.98
2018-03-06T07:04:43.426Z,88.17
2018-03-06T07:05:08.937Z,88.26
2018-03-06T07:05:34.514Z,88.07
2018-03-06T07:05:59.918Z,87.4
2018-03-06T07:06:25.373Z,87.69
2018-03-06T07:06:50.893Z,87.59
2018-03-06T07:07:16.342Z,87.59
2018-03-06T07:07:41.848Z,87.59
2018-03-06T07:08:07.308Z,87.88
2018-03-06T07:08:32.790Z,88.07
2018-03-06T07:08:58.247Z,87.98
2018-03-06T07:09:23.783Z,87.88
2018-03-06T07:09:49.235Z,87.69
2018-03-06T07:10:14.728Z,88.17
2018-03-06T07:10:40.210Z,87.78
2018-03-06T07:11:05.747Z,87.78
2018-03-06T07:11:31.212Z,87.98
2018-03-06T07:11:56.695Z,87.88
2018-03-06T07:12:22.105Z,87.88
2018-03-06T07:12:47.610Z,87.88
2018-03-06T07:13:13.085Z,87.78
2018-03-06T07:13:38.517Z,87.98
2018-03-06T07:14:04.020Z,87.88
2018-03-06T07:14:29.481Z,88.07
2018-03-06T07:14:54.973Z,88.07
2018-03-06T07:15:20.467Z,87.78
2018-03-06T07:15:46.033Z,87.98
2018-03-06T07:16:11.430Z,88.07
2018-03-06T07:16:36.910Z,88.35
2018-03-06T07:17:02.437Z,87.59
2018-03-06T07:17:27.837Z,87.69
2018-03-06T07:17:53.327Z,87.59
2018-03-06T07:18:18.776Z,87.64
2018-03-06T07:18:44.257Z,87.69
2018-03-06T07:19:09.684Z,87.59
2018-03-06T07:19:35.181Z,87.64
2018-03-06T07:20:00.662Z,87.92
2018-03-06T07:20:26.199Z,87.73
2018-03-06T07:20:51.685Z,87.92
2018-03-06T07:21:17.168Z,87.83
2018-03-06T07:21:42.671Z,87.64
2018-03-06T07:22:08.143Z,87.54
2018-03-06T07:22:33.645Z,87.64
2018-03-06T07:22:59.090Z,87.73
2018-03-06T07:23:24.565Z,87.83
2018-03-06T07:23:50.064Z,86.88
2018-03-06T07:24:15.509Z,87.73
2018-03-06T07:24:41.006Z,86.98
2018-03-06T07:25:06.529Z,87.64
2018-03-06T07:25:32.026Z,87.73
2018-03-06T07:25:57.518Z,88.21
2018-03-06T07:26:23.020Z,87.54
2018-03-06T07:26:48.547Z,87.54
2018-03-06T07:27:13.992Z,87.64
2018-03-06T07:27:39.516Z,87.64
2018-03-06T07:28:38.998Z,87.73
2018-03-06T07:29:04.524Z,87.83
2018-03-06T07:29:30.023Z,87.45
2018-03-06T07:29:55.535Z,86.98
2018-03-06T07:30:20.966Z,87.16
2018-03-06T07:30:46.418Z,87.26
2018-03-06T07:31:11.894Z,87.07
2018-03-06T07:31:37.328Z,87.64
2018-03-06T07:32:02.773Z,87.54
2018-03-06T07:32:28.264Z,87.16
2018-03-06T07:32:53.729Z,87.16
2018-03-06T07:33:19.205Z,87.35
2018-03-06T07:33:44.672Z,86.88
2018-03-06T07:34:58.533Z,86.79
2018-03-06T07:35:24.022Z,86.5
2018-03-06T07:35:49.514Z,86.6
2018-03-06T07:36:15.008Z,86.31
2018-03-06T07:36:40.524Z,86.41
2018-03-06T07:37:06.006Z,86.6
2018-03-06T07:37:31.543Z,86.12
2018-03-06T07:37:57.025Z,85.93
2018-03-06T07:38:22.539Z,85.84
2018-03-06T07:38:48.019Z,86.12
2018-03-06T07:39:13.524Z,85.97
2018-03-06T07:39:39.009Z,86.22
2018-03-06T07:40:04.506Z,86.16
2018-03-06T07:40:29.958Z,86.45
2018-03-06T07:40:55.407Z,86.26
2018-03-06T07:41:20.885Z,86.45
2018-03-06T07:41:46.398Z,86.26
2018-03-06T07:42:11.907Z,86.35
2018-03-06T07:42:37.370Z,86.26
2018-03-06T07:43:02.889Z,85.97
2018-03-06T07:43:28.435Z,85.78
2018-03-06T07:43:53.956Z,85.5
2018-03-06T07:44:19.454Z,85.88
2018-03-06T07:44:44.961Z,85.31
2018-03-06T07:45:10.472Z,85.6
2018-03-06T07:45:35.944Z,85.5
2018-03-06T07:46:01.432Z,85.41
2018-03-06T07:46:26.915Z,85.41
2018-03-06T07:46:52.446Z,85.5
2018-03-06T07:47:17.915Z,85.41
2018-03-06T07:47:43.369Z,85.5
2018-03-06T07:48:08.878Z,85.41
2018-03-06T07:48:34.376Z,85.22
2018-03-06T07:48:59.885Z,85.03
2018-03-06T07:49:25.383Z,84.74
2018-03-06T07:49:50.875Z,84.65
2018-03-06T07:50:16.342Z,84.55
2018-03-06T07:50:41.902Z,84.74
2018-03-06T07:51:07.403Z,84.84
2018-03-06T07:51:32.856Z,85.41
2018-03-06T07:51:58.406Z,85.41
2018-03-06T07:52:23.924Z,85.31
2018-03-06T07:52:49.463Z,85.22
2018-03-06T07:53:14.910Z,85.31
2018-03-06T07:53:40.411Z,85.22
2018-03-06T07:54:05.929Z,85.41
2018-03-06T07:54:31.397Z,85.5
2018-03-06T07:54:56.876Z,84.74
2018-03-06T07:55:22.331Z,85.03
2018-03-06T07:55:47.814Z,84.84
2018-03-06T07:56:13.307Z,85.41
2018-03-06T07:56:38.768Z,84.55
2018-03-06T07:57:04.244Z,84.84
2018-03-06T07:57:29.697Z,84.94
2018-03-06T07:57:55.165Z,84.55
2018-03-06T07:58:20.683Z,84.55
2018-03-06T07:58:46.177Z,84.84
2018-03-06T07:59:11.690Z,85.03
2018-03-06T07:59:37.158Z,84.74
2018-03-06T08:00:02.637Z,84.94
2018-03-06T08:00:28.132Z,85.03
2018-03-06T08:00:53.644Z,84.36
2018-03-06T08:01:19.119Z,84.36
2018-03-06T08:01:44.588Z,84.74
2018-03-06T08:02:10.096Z,84.74
2018-03-06T08:02:35.581Z,85.03
2018-03-06T08:03:01.077Z,84.84
2018-03-06T08:03:26.572Z,84.94
2018-03-06T08:03:52.017Z,84.65
2018-03-06T08:04:17.504Z,85.13
2018-03-06T08:04:42.950Z,84.55
2018-03-06T08:05:08.441Z,84.65
2018-03-06T08:05:33.943Z,84.84
2018-03-06T08:05:59.427Z,84.74
2018-03-06T08:06:24.973Z,84.46
2018-03-06T08:06:50.444Z,84.65
2018-03-06T08:07:15.914Z,84.55
2018-03-06T08:07:41.417Z,84.55
2018-03-06T08:08:06.925Z,84.46
2018-03-06T08:09:00.379Z,84.65
2018-03-06T08:09:25.861Z,84.55
2018-03-06T08:09:51.376Z,84.36
2018-03-06T08:10:16.860Z,84.36
2018-03-06T08:10:42.283Z,84.65
2018-03-06T08:11:07.748Z,84.36
2018-03-06T08:11:33.279Z,84.55
2018-03-06T08:11:58.733Z,84.08
2018-03-06T08:12:24.143Z,83.89
2018-03-06T08:12:49.639Z,84.55
2018-03-06T08:13:15.097Z,83.8
2018-03-06T08:13:40.536Z,84.27
2018-03-06T08:14:06.097Z,84.27
2018-03-06T08:14:31.565Z,83.89
2018-03-06T08:14:57.085Z,83.7
2018-03-06T08:16:00.733Z,83.8
2018-03-06T08:16:26.218Z,83.89
2018-03-06T08:16:51.697Z,83.89
2018-03-06T08:17:17.164Z,84.08
2018-03-06T08:17:42.650Z,84.08
2018-03-06T08:18:08.187Z,83.98
2018-03-06T08:18:33.700Z,84.27
2018-03-06T08:18:59.196Z,83.98
2018-03-06T08:19:24.729Z,83.98
2018-03-06T08:19:50.198Z,83.89
2018-03-06T08:20:15.698Z,84.17
2018-03-06T08:20:41.187Z,83.98
2018-03-06T08:21:06.663Z,84.08
2018-03-06T08:21:32.149Z,83.98
2018-03-06T08:21:57.611Z,84.08
2018-03-06T08:22:23.111Z,84.08
2018-03-06T08:22:48.556Z,84.36
2018-03-06T08:23:14.079Z,84.36
2018-03-06T08:23:39.589Z,83.98
2018-03-06T08:24:05.107Z,84.08
2018-03-06T08:24:30.569Z,83.98
2018-03-06T08:24:56.067Z,84.08
2018-03-06T08:25:21.586Z,83.98
2018-03-06T08:25:47.050Z,84.08
2018-03-06T08:26:12.549Z,84.08
2018-03-06T08:26:38.059Z,83.98
2018-03-06T08:27:03.529Z,84.36
2018-03-06T08:27:28.999Z,83.74
2018-03-06T08:27:54.463Z,83.74
2018-03-06T08:28:19.960Z,83.74
2018-03-06T08:28:45.475Z,83.65
2018-03-06T08:29:10.948Z,83.55
2018-03-06T08:29:36.446Z,83.55
2018-03-06T08:30:02.016Z,83.65
2018-03-06T08:30:27.438Z,83.94
2018-03-06T08:30:52.997Z,83.74
2018-03-06T08:31:18.511Z,83.55
2018-03-06T08:31:44.031Z,83.55
2018-03-06T08:32:09.534Z,83.36
2018-03-06T08:32:35.033Z,83.55
2018-03-06T08:33:00.526Z,83.17
2018-03-06T08:33:26.034Z,82.98
2018-03-06T08:33:51.524Z,82.98
2018-03-06T08:35:00.228Z,82.89
2018-03-06T08:35:25.716Z,82.51
2018-03-06T08:35:51.173Z,82.7
2018-03-06T08:36:16.635Z,82.89
2018-03-06T08:36:42.168Z,82.6
2018-03-06T08:37:07.621Z,82.42
2018-03-06T08:37:33.158Z,82.13
2018-03-06T08:37:58.683Z,82.04
2018-03-06T08:38:24.185Z,82.23
2018-03-06T08:38:49.636Z,82.32
2018-03-06T08:39:58.329Z,81.94
2018-03-06T08:40:23.813Z,81.94
2018-03-06T08:40:49.312Z,81.98
2018-03-06T08:41:14.823Z,82.17
2018-03-06T08:41:40.320Z,82.17
2018-03-06T08:42:05.813Z,82.08
2018-03-06T08:42:31.283Z,81.98
2018-03-06T08:42:56.839Z,82.08
2018-03-06T08:43:22.317Z,82.36
2018-03-06T08:43:47.826Z,81.7
2018-03-06T08:44:13.340Z,81.79
2018-03-06T08:44:38.861Z,81.6
2018-03-06T08:45:04.355Z,81.51
2018-03-06T08:45:29.846Z,80.65
2018-03-06T08:45:55.340Z,81.04
2018-03-06T08:46:20.785Z,80.37
2018-03-06T08:46:46.287Z,80.46
2018-03-06T08:47:11.779Z,80.37
2018-03-06T08:47:37.247Z,81.13
2018-03-06T08:48:02.773Z,80.94
2018-03-06T08:48:28.282Z,81.23
2018-03-06T08:48:53.832Z,80.84
2018-03-06T08:49:19.342Z,81.13
2018-03-06T08:49:44.835Z,81.04
2018-03-06T08:50:10.332Z,81.13
2018-03-06T08:51:03.777Z,80.46
2018-03-06T08:51:29.318Z,80.18
2018-03-06T08:51:54.790Z,79.99
2018-03-06T08:52:20.252Z,79.94
2018-03-06T08:52:45.737Z,79.71
2018-03-06T08:53:11.222Z,80.22
2018-03-06T08:53:36.699Z,80.13
2018-03-06T08:54:45.423Z,80.03
2018-03-06T08:55:10.949Z,79.65
2018-03-06T08:55:36.413Z,79.65
2018-03-06T08:56:01.885Z,79.17
2018-03-06T08:56:27.425Z,79.27
2018-03-06T08:56:52.932Z,79.55
2018-03-06T08:57:18.536Z,79.65
2018-03-06T08:57:44.063Z,79.55
2018-03-06T08:58:09.475Z,79.36
2018-03-06T08:58:34.991Z,78.89
2018-03-06T08:59:00.458Z,78.7
2018-03-06T08:59:25.998Z,78.32
2018-03-06T08:59:51.520Z,78.51
2018-03-06T09:00:17.044Z,77.56
2018-03-06T09:00:42.584Z,77.94
2018-03-06T09:01:08.045Z,77.94
2018-03-06T09:01:33.536Z,78.13
2018-03-06T09:01:59.113Z,78.13
2018-03-06T09:02:24.575Z,78.13
2018-03-06T09:02:50.060Z,78.23
2018-03-06T09:03:15.619Z,78.03
2018-03-06T09:03:41.262Z,77.47
2018-03-06T09:04:06.759Z,77.09
2018-03-06T09:04:32.275Z,76.8
2018-03-06T09:04:57.986Z,77.47
2018-03-06T09:06:06.798Z,76.9
2018-03-06T09:06:32.231Z,76.75
2018-03-06T09:06:57.779Z,77.31
2018-03-06T09:07:23.241Z,77.41
2018-03-06T09:07:48.825Z,76.75
2018-03-06T09:08:14.331Z,77.51
2018-03-06T09:08:39.841Z,77.79
2018-03-06T09:09:05.338Z,77.51
2018-03-06T09:09:30.807Z,77.31
2018-03-06T09:09:56.405Z,77.51
2018-03-06T09:10:21.887Z,77.41
2018-03-06T09:10:47.365Z,77.51
2018-03-06T09:11:12.853Z,77.31
2018-03-06T09:11:38.365Z,77.89
2018-03-06T09:12:03.862Z,77.22
2018-03-06T09:12:29.395Z,77.41
2018-03-06T09:12:54.859Z,77.31
2018-03-06T09:13:20.427Z,77.03
2018-03-06T09:13:45.972Z,77.51
2018-03-06T09:14:11.380Z,77.41
2018-03-06T09:14:36.844Z,76.93
2018-03-06T09:15:02.332Z,76.93
2018-03-06T09:15:27.934Z,76.84
2018-03-06T09:15:53.391Z,76.65
2018-03-06T09:16:18.889Z,77.03
2018-03-06T09:16:44.341Z,76.93
2018-03-06T09:17:09.812Z,76.56
2018-03-06T09:17:35.343Z,76.56
2018-03-06T09:18:00.840Z,76.65
2018-03-06T09:18:26.291Z,76.56
2018-03-06T09:18:51.767Z,76.12
2018-03-06T09:19:17.252Z,75.79
2018-03-06T09:19:42.740Z,75.64
2018-03-06T09:20:08.183Z,75.79
2018-03-06T09:21:06.737Z,75.89
2018-03-06T09:21:32.302Z,76.08
2018-03-06T09:21:57.713Z,76.03
2018-03-06T09:22:23.155Z,75.93
2018-03-06T09:22:48.668Z,76.97
2018-03-06T09:23:14.098Z,76.59
2018-03-06T09:23:39.612Z,76.5
2018-03-06T09:24:05.093Z,76.5
2018-03-06T09:24:30.570Z,76.31
2018-03-06T09:24:56.134Z,75.64
2018-03-06T09:25:21.620Z,75.45
2018-03-06T09:25:47.076Z,75.36
2018-03-06T09:26:12.579Z,74.41
2018-03-06T09:26:38.027Z,74.79
2018-03-06T09:27:03.535Z,74.31
2018-03-06T09:27:28.944Z,74.12
2018-03-06T09:27:54.446Z,73.74
2018-03-06T09:28:20.042Z,73.55
2018-03-06T09:28:45.513Z,74.03
2018-03-06T09:29:11.022Z,73.93
2018-03-06T09:29:36.468Z,73.65
2018-03-06T09:30:02.010Z,73.55
2018-03-06T09:30:27.462Z,74.22
2018-03-06T09:30:52.923Z,74.03
2018-03-06T09:31:18.392Z,73.46
2018-03-06T09:31:43.876Z,73.74
2018-03-06T09:32:09.318Z,73.65
2018-03-06T09:32:34.871Z,74.03
2018-03-06T09:33:00.415Z,74.31
2018-03-06T09:33:25.883Z,74.6
2018-03-06T09:33:51.387Z,74.44
2018-03-06T09:34:17.060Z,74.54
2018-03-06T09:34:42.440Z,74.44
2018-03-06T09:35:07.908Z,73.97
2018-03-06T09:35:33.392Z,73.59
2018-03-06T09:35:58.848Z,73.88
2018-03-06T09:36:24.359Z,73.69
2018-03-06T09:36:49.817Z,73.88
2018-03-06T09:37:15.290Z,73.78
2018-03-06T09:37:40.787Z,73.78
2018-03-06T09:38:06.370Z,73.3
2018-03-06T09:38:31.853Z,72.64
2018-03-06T09:38:57.348Z,72.74
2018-03-06T09:39:22.817Z,72.26
2018-03-06T09:39:48.299Z,72.45
2018-03-06T09:40:13.806Z,71.97
2018-03-06T09:40:39.334Z,72.16
2018-03-06T09:41:04.842Z,71.97
2018-03-06T09:41:30.335Z,71.97
2018-03-06T09:41:55.862Z,72.26
2018-03-06T09:42:21.336Z,72.55
2018-03-06T09:42:46.865Z,72.64
2018-03-06T09:43:12.354Z,71.97
2018-03-06T09:43:37.794Z,72.07
2018-03-06T09:44:03.288Z,72.07
2018-03-06T09:44:28.829Z,71.59
2018-03-06T09:44:54.343Z,71.69
2018-03-06T09:45:19.822Z,71.78
2018-03-06T09:45:45.312Z,71.88
2018-03-06T09:46:10.803Z,72.26
2018-03-06T09:46:36.317Z,72.07
2018-03-06T09:47:01.797Z,72.07
2018-03-06T09:47:27.286Z,72.16
2018-03-06T09:47:52.740Z,71.88
2018-03-06T09:48:18.219Z,72.07
2018-03-06T09:48:43.685Z,71.88
2018-03-06T09:49:09.196Z,71.97
2018-03-06T09:49:34.665Z,71.78
2018-03-06T09:50:00.182Z,71.97
2018-03-06T09:50:25.641Z,72.26
2018-03-06T09:50:51.191Z,72.26
2018-03-06T09:51:16.668Z,72.07
2018-03-06T09:51:42.120Z,71.97
2018-03-06T09:52:07.597Z,71.59
2018-03-06T09:52:33.034Z,71.78
2018-03-06T09:52:58.486Z,71.5
2018-03-06T09:53:23.972Z,71.22
2018-03-06T09:53:49.408Z,70.83
2018-03-06T09:54:14.936Z,70.87
2018-03-06T09:54:40.432Z,71.02
2018-03-06T09:55:05.950Z,71.31
2018-03-06T09:55:31.427Z,71.5
2018-03-06T09:55:56.919Z,71.41
2018-03-06T09:56:22.360Z,71.59
2018-03-06T09:56:47.823Z,70.83
2018-03-06T09:57:13.340Z,71.31
2018-03-06T09:58:22.042Z,71.5
2018-03-06T09:58:47.539Z,71.34
2018-03-06T09:59:12.996Z,71.25
2018-03-06T09:59:38.529Z,71.59
2018-03-06T10:00:03.997Z,71.88
2018-03-06T10:00:29.459Z,71.82
2018-03-06T10:00:54.975Z,71.69
2018-03-06T10:01:20.506Z,71.72
2018-03-06T10:01:45.922Z,72.01
2018-03-06T10:02:11.367Z,72.11
2018-03-06T10:02:36.890Z,71.88
2018-03-06T10:03:02.430Z,71.72
2018-03-06T10:03:27.838Z,71.63
2018-03-06T10:04:46.761Z,72.11
2018-03-06T10:05:12.273Z,71.91
2018-03-06T10:05:37.756Z,71.91
2018-03-06T10:06:03.240Z,72.2
2018-03-06T10:06:28.691Z,71.72
2018-03-06T10:06:54.208Z,71.34
2018-03-06T10:07:19.713Z,71.44
2018-03-06T10:07:45.158Z,71.15
2018-03-06T10:08:48.764Z,69.92
2018-03-06T10:09:14.341Z,69.92
2018-03-06T10:09:39.758Z,70.1
2018-03-06T10:10:05.226Z,70.1
2018-03-06T10:10:30.721Z,70.3
2018-03-06T10:10:56.182Z,70.49
2018-03-06T10:11:21.667Z,70.77
2018-03-06T10:11:47.175Z,70.87
2018-03-06T10:12:12.656Z,70.58
2018-03-06T10:12:38.144Z,70.77
2018-03-06T10:13:46.854Z,70.2
2018-03-06T10:14:12.381Z,70.01
2018-03-06T10:14:37.867Z,70.39
2018-03-06T10:15:03.358Z,70.39
2018-03-06T10:16:01.900Z,70.39
2018-03-06T10:16:27.415Z,70.01
2018-03-06T10:16:52.917Z,70.3
2018-03-06T10:17:18.405Z,70.58
2018-03-06T10:17:43.942Z,70.58
2018-03-06T10:18:09.432Z,70.3
2018-03-06T10:18:35.043Z,70.77
2018-03-06T10:19:00.460Z,70.1
2018-03-06T10:19:25.931Z,70.49
2018-03-06T10:19:51.392Z,70.3
2018-03-06T10:20:16.877Z,70.43
2018-03-06T10:20:42.314Z,70.62
2018-03-06T10:21:40.833Z,70.24
2018-03-06T10:22:06.311Z,69.95
2018-03-06T10:22:31.813Z,69.67
2018-03-06T10:22:57.330Z,69.38
2018-03-06T10:23:22.787Z,69.38
2018-03-06T10:23:48.289Z,69.38
2018-03-06T10:24:13.783Z,69.67
2018-03-06T10:24:39.351Z,69.57
2018-03-06T10:25:04.826Z,69.76
2018-03-06T10:25:30.324Z,69.48
2018-03-06T10:25:55.827Z,68.81
2018-03-06T10:26:21.293Z,69.57
2018-03-06T10:26:46.830Z,69.67
2018-03-06T10:27:12.309Z,69.38
2018-03-06T10:27:37.765Z,69
2018-03-06T10:28:03.260Z,69
2018-03-06T10:28:28.704Z,69.19
2018-03-06T10:28:54.214Z,68.43
2018-03-06T10:29:19.678Z,68.33
2018-03-06T10:29:45.196Z,69.1
2018-03-06T10:30:10.658Z,68.33
2018-03-06T10:30:36.139Z,67.86
2018-03-06T10:31:01.700Z,67.47
2018-03-06T10:31:27.200Z,66.81
2018-03-06T10:31:52.678Z,68.05
2018-03-06T10:32:18.188Z,67.86
2018-03-06T10:32:43.691Z,67.76
2018-03-06T10:33:09.200Z,67.19
2018-03-06T10:33:34.694Z,67
2018-03-06T10:34:00.194Z,67.67
2018-03-06T10:34:25.730Z,67.1
2018-03-06T10:34:51.234Z,67.47
2018-03-06T10:35:16.767Z,67
2018-03-06T10:35:42.248Z,67.1
2018-03-06T10:36:07.759Z,66.91
2018-03-06T10:36:33.211Z,66.81
2018-03-06T10:36:58.695Z,66.72
2018-03-06T10:37:24.209Z,66.27
2018-03-06T10:38:22.740Z,66.62
2018-03-06T10:38:48.266Z,66.66
2018-03-06T10:39:13.770Z,66.75
2018-03-06T10:39:39.284Z,66.91
2018-03-06T10:40:04.756Z,67.13
2018-03-06T10:40:30.264Z,66.75
2018-03-06T10:40:55.730Z,67.1
2018-03-06T10:41:21.222Z,66.85